www.grainau-wetter.de
Wetterdaten: aktuell Montag, 01.06.2020 23:22
Datum Zeit Temp. A. Feuchte A. Luftdruck Regen Wind Richtung Richtung T Regen Taupunkt Windchill
01.06.2020 23:22 12,8 C 61 % 1018 hPa 0,0 l/m 0,0 km/h (0 Bft) S 180 0 min 5,5 C 12,8 C
01.06.2020 22:22 14,6 C 57 % 1018 hPa 0,0 l/m 0,0 km/h (0 Bft) SW 225 0 min 6,2 C 14,6 C
01.06.2020 21:22 17,2 C 52 % 1017 hPa 0,0 l/m 0,0 km/h (0 Bft) W-SW 247 0 min 7,3 C 17,2 C
01.06.2020 20:22 19,6 C 46 % 1017 hPa 0,0 l/m 0,0 km/h (0 Bft) SO 135 0 min 7,7 C 19,6 C
01.06.2020 19:22 21,6 C 43 % 1016 hPa 0,0 l/m 4,0 km/h (1 Bft) S-SO 157 0 min 8,5 C 21,6 C
01.06.2020 18:22 22,4 C 42 % 1016 hPa 0,0 l/m 7,2 km/h (2 Bft) O-NO 67 0 min 8,9 C 22,4 C
01.06.2020 17:22 22,9 C 43 % 1016 hPa 0,0 l/m 7,9 km/h (2 Bft) O-SO 112 0 min 9,6 C 22,9 C
01.06.2020 16:22 23,4 C 41 % 1016 hPa 0,0 l/m 8,6 km/h (2 Bft) O-NO 67 0 min 9,4 C 23,4 C
01.06.2020 15:22 23,9 C 40 % 1016 hPa 0,0 l/m 11,9 km/h (2 Bft) S 180 0 min 9,5 C 23,9 C
01.06.2020 14:22 23,8 C 39 % 1016 hPa 0,0 l/m 8,3 km/h (2 Bft) O 90 0 min 9,0 C 23,8 C
01.06.2020 13:22 24,4 C 38 % 1017 hPa 0,0 l/m 4,7 km/h (1 Bft) S 180 0 min 9,2 C 24,4 C
01.06.2020 12:22 23,8 C 40 % 1017 hPa 0,0 l/m 13,0 km/h (3 Bft) S-SO 157 0 min 9,4 C 23,8 C
01.06.2020 11:22 24,3 C 37 % 1018 hPa 0,0 l/m 4,0 km/h (1 Bft) SW 225 0 min 8,7 C 24,3 C
01.06.2020 10:22 25,6 C 35 % 1018 hPa 0,0 l/m 5,4 km/h (1 Bft) O-NO 67 0 min 9,0 C 25,6 C
01.06.2020 09:22 23,3 C 38 % 1019 hPa 0,0 l/m 2,9 km/h (1 Bft) N-NO 22 0 min 8,2 C 23,3 C
01.06.2020 08:22 17,9 C 52 % 1019 hPa 0,0 l/m 0,0 km/h (0 Bft) SO 135 0 min 7,9 C 17,9 C
01.06.2020 07:22 16,4 C 55 % 1019 hPa 0,0 l/m 0,0 km/h (0 Bft) O-SO 112 0 min 7,3 C 16,4 C
01.06.2020 06:22 8,1 C 76 % 1019 hPa 0,0 l/m 0,0 km/h (0 Bft) N-NW 337 0 min 4,1 C 8,1 C
01.06.2020 05:22 5,9 C 74 % 1019 hPa 0,0 l/m 0,0 km/h (0 Bft) S-SW 202 0 min 1,6 C 5,9 C
01.06.2020 04:22 6,8 C 71 % 1019 hPa 0,0 l/m 0,0 km/h (0 Bft) S-SW 202 0 min 1,9 C 6,8 C
01.06.2020 03:22 7,9 C 69 % 1019 hPa 0,0 l/m 0,0 km/h (0 Bft) S-SW 202 0 min 2,6 C 7,9 C
01.06.2020 02:22 9,1 C 67 % 1019 hPa 0,0 l/m 0,0 km/h (0 Bft) SW 225 0 min 3,3 C 9,1 C
01.06.2020 01:22 9,1 C 64 % 1019 hPa 0,0 l/m 0,0 km/h (0 Bft) W-SW 247 0 min 2,7 C 9,1 C
01.06.2020 00:22 10,7 C 60 % 1019 hPa 0,0 l/m 0,0 km/h (0 Bft) NW 315 0 min 3,3 C 10,7 C
_ Min-Zeit 05:22 10:22 14:22 - 00:22 - - - 05:22 05:22
Minimum _ 5,9 C 35 % 1016 hPa - 0,0 km/h (0 Bft) - - - 1,6 C 5,9 C
_ Max-Zeit 10:22 06:22 00:22 00:22 12:22 - - 00:22 17:22 10:22
Maximum _ 25,6 C 76 % 1019 hPa 0,0 l/m 13,0 km/h
S-SO (3 Bft)
- - 0 min 9,6 C 25,6 C
Durchschnitt _ 17,5 C 51 % 1018 hPa #0,0 l/m 3,3 km/h (1 Bft) O-NO - #0 min. 6,8 C 17,5 C
2019-Hubert Stuehler